createdAt,value
2019-01-27T00:00:30.810Z,99381.19
2019-01-27T00:02:59.276Z,99374.77
2019-01-27T00:05:27.768Z,99373.30
2019-01-27T00:07:56.188Z,99367.30
2019-01-27T00:10:24.667Z,99363.80
2019-01-27T00:12:53.166Z,99367.09
2019-01-27T00:15:21.941Z,99359.70
2019-01-27T00:17:50.382Z,99366.81
2019-01-27T00:20:21.399Z,99362.27
2019-01-27T00:22:50.058Z,99360.15
2019-01-27T00:25:18.770Z,99357.75
2019-01-27T00:27:47.249Z,99353.37
2019-01-27T00:30:23.736Z,99345.23
2019-01-27T00:32:52.185Z,99350.22
2019-01-27T00:35:20.678Z,99344.94
2019-01-27T00:37:49.162Z,99348.06
2019-01-27T00:40:18.782Z,99345.64
2019-01-27T00:42:47.410Z,99336.58
2019-01-27T00:45:20.649Z,99334.08
2019-01-27T00:47:49.096Z,99337.41
2019-01-27T00:50:19.214Z,99328.17
2019-01-27T00:52:47.734Z,99325.84
2019-01-27T00:55:23.873Z,99329.22
2019-01-27T00:57:52.698Z,99320.89
2019-01-27T01:00:24.246Z,99322.20
2019-01-27T01:02:52.730Z,99313.18
2019-01-27T01:05:21.278Z,99316.02
2019-01-27T01:07:49.714Z,99308.22
2019-01-27T01:10:20.310Z,99314.50
2019-01-27T01:12:49.060Z,99312.07
2019-01-27T01:15:18.226Z,99306.62
2019-01-27T01:17:46.766Z,99298.30
2019-01-27T01:20:17.954Z,99295.03
2019-01-27T01:22:46.970Z,99293.05
2019-01-27T01:25:20.828Z,99285.32
2019-01-27T01:27:49.849Z,99287.09
2019-01-27T01:30:21.191Z,99276.92
2019-01-27T01:32:49.666Z,99274.94
2019-01-27T01:35:18.342Z,99273.55
2019-01-27T01:37:47.025Z,99273.66
2019-01-27T01:40:18.327Z,99271.32
2019-01-27T01:42:47.024Z,99261.81
2019-01-27T01:45:27.407Z,99260.78
2019-01-27T01:47:55.944Z,99255.81
2019-01-27T01:50:24.426Z,99246.41
2019-01-27T01:52:52.942Z,99229.84
2019-01-27T01:55:21.465Z,99234.17
2019-01-27T01:57:49.994Z,99220.16
2019-01-27T02:00:23.624Z,99214.09
2019-01-27T02:02:52.078Z,99214.16
2019-01-27T02:05:21.686Z,99208.44
2019-01-27T02:07:50.235Z,99199.24
2019-01-27T02:10:20.901Z,99205.59
2019-01-27T02:12:50.532Z,99199.28
2019-01-27T02:15:30.858Z,99190.99
2019-01-27T02:17:59.389Z,99187.21
2019-01-27T02:20:28.283Z,99181.73
2019-01-27T02:22:56.726Z,99176.73
2019-01-27T02:25:25.205Z,99172.30
2019-01-27T02:27:53.672Z,99169.84
2019-01-27T02:30:22.478Z,99160.61
2019-01-27T02:32:50.928Z,99158.40
2019-01-27T02:35:19.367Z,99154.20
2019-01-27T02:37:47.849Z,99150.73
2019-01-27T02:40:16.306Z,99152.12
2019-01-27T02:42:44.773Z,99135.97
2019-01-27T02:45:14.954Z,99132.56
2019-01-27T02:47:43.423Z,99121.44
2019-01-27T02:50:12.807Z,99117.13
2019-01-27T02:52:41.283Z,99107.32
2019-01-27T02:55:10.484Z,99104.66
2019-01-27T02:57:38.959Z,99093.91
2019-01-27T03:00:16.072Z,99096.05
2019-01-27T03:02:44.523Z,99090.55
2019-01-27T03:05:18.135Z,99083.12
2019-01-27T03:07:46.591Z,99079.75
2019-01-27T03:10:16.604Z,99073.38
2019-01-27T03:12:45.135Z,99072.83
2019-01-27T03:15:15.707Z,99067.48
2019-01-27T03:17:44.157Z,99068.38
2019-01-27T03:20:13.541Z,99061.28
2019-01-27T03:22:42.007Z,99055.22
2019-01-27T03:25:15.312Z,99050.63
2019-01-27T03:27:43.778Z,99048.13
2019-01-27T03:30:18.184Z,99052.77
2019-01-27T03:32:46.661Z,99052.09
2019-01-27T03:35:15.103Z,99050.02
2019-01-27T03:37:43.545Z,99044.66
2019-01-27T03:40:14.553Z,99039.27
2019-01-27T03:42:43.074Z,99038.23
2019-01-27T03:45:14.470Z,99031.75
2019-01-27T03:47:42.918Z,99024.70
2019-01-27T03:50:14.940Z,99034.31
2019-01-27T03:52:43.384Z,99031.06
2019-01-27T03:55:17.985Z,99020.70
2019-01-27T03:57:46.466Z,99016.34
2019-01-27T04:00:22.471Z,99018.30
2019-01-27T04:02:51.078Z,99010.02
2019-01-27T04:05:19.870Z,98999.59
2019-01-27T04:07:48.416Z,98993.70
2019-01-27T04:10:27.226Z,98992.50
2019-01-27T04:12:55.913Z,98981.89
2019-01-27T04:15:24.380Z,98974.02
2019-01-27T04:17:52.883Z,98978.08
2019-01-27T04:20:22.426Z,98977.55
2019-01-27T04:22:51.206Z,98973.45
2019-01-27T04:25:20.019Z,98966.39
2019-01-27T04:27:48.474Z,98959.47
2019-01-27T04:30:20.990Z,98950.83
2019-01-27T04:32:49.443Z,98955.86
2019-01-27T04:35:17.882Z,98951.56
2019-01-27T04:37:46.346Z,98948.84
2019-01-27T04:40:17.484Z,98945.53
2019-01-27T04:42:45.965Z,98937.20
2019-01-27T04:45:17.487Z,98940.45
2019-01-27T04:47:46.023Z,98937.20
2019-01-27T04:50:15.187Z,98930.64
2019-01-27T04:52:43.728Z,98931.12
2019-01-27T04:55:14.607Z,98924.14
2019-01-27T04:57:43.066Z,98922.09
2019-01-27T05:00:17.229Z,98921.06
2019-01-27T05:02:47.323Z,98910.55
2019-01-27T05:05:15.955Z,98911.73
2019-01-27T05:07:44.395Z,98908.08
2019-01-27T05:10:14.192Z,98906.28
2019-01-27T05:12:42.683Z,98907.12
2019-01-27T05:15:23.367Z,98900.32
2019-01-27T05:17:51.798Z,98893.55
2019-01-27T05:20:20.243Z,98890.03
2019-01-27T05:22:48.664Z,98881.22
2019-01-27T05:25:17.882Z,98885.42
2019-01-27T05:27:46.316Z,98880.86
2019-01-27T05:30:26.705Z,98880.95
2019-01-27T05:32:55.154Z,98872.59
2019-01-27T05:35:23.677Z,98867.05
2019-01-27T05:37:52.126Z,98872.28
2019-01-27T05:40:21.986Z,98866.89
2019-01-27T05:42:50.472Z,98861.58
2019-01-27T05:45:24.885Z,98852.95
2019-01-27T05:47:53.490Z,98852.61
2019-01-27T05:50:22.286Z,98848.92
2019-01-27T05:52:50.736Z,98845.58
2019-01-27T05:55:20.403Z,98846.35
2019-01-27T05:57:49.109Z,98843.05
2019-01-27T06:00:28.213Z,98845.26
2019-01-27T06:02:56.669Z,98844.39
2019-01-27T06:05:25.117Z,98835.41
2019-01-27T06:07:53.597Z,98834.13
2019-01-27T06:10:22.056Z,98832.83
2019-01-27T06:12:50.502Z,98831.26
2019-01-27T06:15:20.283Z,98827.48
2019-01-27T06:17:48.956Z,98820.95
2019-01-27T06:20:18.133Z,98811.63
2019-01-27T06:22:46.587Z,98804.29
2019-01-27T06:25:19.307Z,98805.13
2019-01-27T06:27:47.792Z,98795.88
2019-01-27T06:30:20.414Z,98796.51
2019-01-27T06:33:02.713Z,98789.20
2019-01-27T06:35:31.324Z,98787.63
2019-01-27T06:37:59.777Z,98783.86
2019-01-27T06:40:28.253Z,98797.10
2019-01-27T06:42:56.723Z,98784.13
2019-01-27T06:45:25.158Z,98783.86
2019-01-27T06:47:53.609Z,98783.42
2019-01-27T06:50:22.052Z,98781.30
2019-01-27T06:52:50.503Z,98781.36
2019-01-27T06:55:20.790Z,98775.09
2019-01-27T06:57:49.415Z,98776.66
2019-01-27T07:00:40.872Z,98766.03
2019-01-27T07:03:26.049Z,98765.20
2019-01-27T07:06:02.067Z,98772.33
2019-01-27T07:08:32.170Z,98764.92
2019-01-27T07:11:18.302Z,98763.05
2019-01-27T07:14:03.542Z,98758.64
2019-01-27T07:16:42.618Z,98753.09
2019-01-27T07:19:28.063Z,98754.44
2019-01-27T07:21:58.218Z,98757.33
2019-01-27T07:24:29.880Z,98753.57
2019-01-27T07:27:00.108Z,98747.31
2019-01-27T07:29:38.998Z,98746.44
2019-01-27T07:32:15.163Z,98749.09
2019-01-27T07:34:49.333Z,98744.61
2019-01-27T07:37:28.783Z,98740.85
2019-01-27T07:40:17.040Z,98738.04
2019-01-27T07:42:50.321Z,98732.91
2019-01-27T07:45:29.366Z,98724.09
2019-01-27T07:48:02.423Z,98715.23
2019-01-27T07:50:38.441Z,98724.17
2019-01-27T07:53:11.220Z,98725.60
2019-01-27T07:55:43.950Z,98714.62
2019-01-27T07:58:17.016Z,98707.39
2019-01-27T08:00:47.140Z,98705.83
2019-01-27T08:03:17.219Z,98706.33
2019-01-27T08:05:47.320Z,98695.78
2019-01-27T08:08:17.972Z,98704.34
2019-01-27T08:10:48.062Z,98703.41
2019-01-27T08:13:26.846Z,98702.12
2019-01-27T08:15:59.910Z,98705.05
2019-01-27T08:18:45.903Z,98690.30
2019-01-27T08:21:19.003Z,98687.81
2019-01-27T08:24:01.121Z,98686.44
2019-01-27T08:26:31.252Z,98693.14
2019-01-27T08:29:04.024Z,98686.44
2019-01-27T08:31:42.912Z,98684.30
2019-01-27T08:34:15.458Z,98686.71
2019-01-27T08:36:54.375Z,98676.20
2019-01-27T08:39:27.365Z,98676.42
2019-01-27T08:41:57.494Z,98672.27
2019-01-27T08:44:27.578Z,98673.98
2019-01-27T08:46:56.042Z,98669.96
2019-01-27T08:49:24.501Z,98668.00
2019-01-27T08:51:52.947Z,98663.05
2019-01-27T08:54:21.426Z,98663.67
2019-01-27T08:56:49.873Z,98657.91
2019-01-27T08:59:18.359Z,98654.34
2019-01-27T09:02:05.045Z,98663.74
2019-01-27T09:04:35.185Z,98667.16
2019-01-27T09:07:11.429Z,98661.16
2019-01-27T09:09:47.041Z,98655.17
2019-01-27T09:12:17.125Z,98652.11
2019-01-27T09:14:47.228Z,98647.47
2019-01-27T09:17:33.645Z,98638.45
2019-01-27T09:20:03.747Z,98641.14
2019-01-27T09:22:39.633Z,98633.39
2019-01-27T09:25:26.100Z,98639.12
2019-01-27T09:27:58.606Z,98631.48
2019-01-27T09:30:31.891Z,98625.83
2019-01-27T09:33:05.131Z,98624.27
2019-01-27T09:35:53.083Z,98618.57
2019-01-27T09:38:23.176Z,98613.30
2019-01-27T09:40:53.274Z,98613.73
2019-01-27T09:43:23.376Z,98617.10
2019-01-27T09:46:05.024Z,98619.69
2019-01-27T09:48:28.291Z,98615.20
2019-01-27T09:50:58.402Z,98608.49
2019-01-27T09:53:40.872Z,98607.20
2019-01-27T09:56:13.804Z,98609.77
2019-01-27T09:58:52.500Z,98606.97
2019-01-27T10:01:22.615Z,98604.72
2019-01-27T10:04:01.984Z,98605.05
2019-01-27T10:06:32.140Z,98604.63
2019-01-27T10:09:17.302Z,98600.80
2019-01-27T10:11:47.425Z,98595.09
2019-01-27T10:14:29.842Z,98594.91
2019-01-27T10:17:08.488Z,98591.23
2019-01-27T10:19:54.755Z,98585.22
2019-01-27T10:22:30.582Z,98582.68
2019-01-27T10:25:00.744Z,98584.95
2019-01-27T10:27:39.389Z,98572.38
2019-01-27T10:30:15.269Z,98575.14
2019-01-27T10:32:54.571Z,98564.53
2019-01-27T10:35:24.656Z,98564.74
2019-01-27T10:37:54.760Z,98569.28
2019-01-27T10:40:39.676Z,98558.20
2019-01-27T10:43:18.117Z,98557.38
2019-01-27T10:45:54.177Z,98546.08
2019-01-27T10:48:24.284Z,98550.41
2019-01-27T10:51:00.378Z,98547.41
2019-01-27T10:53:39.184Z,98555.38
2019-01-27T10:56:24.643Z,98546.01
2019-01-27T10:58:57.310Z,98542.64
2019-01-27T11:01:36.674Z,98535.30
2019-01-27T11:04:07.209Z,98539.45
2019-01-27T11:06:39.682Z,98530.95
2019-01-27T11:09:23.834Z,98523.72
2019-01-27T11:12:10.225Z,98516.89
2019-01-27T11:14:49.268Z,98517.13
2019-01-27T11:17:22.029Z,98524.50
2019-01-27T11:19:57.883Z,98520.72
2019-01-27T11:22:33.464Z,98514.51
2019-01-27T11:25:03.589Z,98512.72
2019-01-27T11:27:42.686Z,98501.97
2019-01-27T11:30:18.416Z,98503.80
2019-01-27T11:32:48.498Z,98497.06
2019-01-27T11:35:21.462Z,98501.16
2019-01-27T11:37:51.543Z,98488.72
2019-01-27T11:40:37.865Z,98478.03
2019-01-27T11:43:14.159Z,98478.45
2019-01-27T11:45:44.257Z,98482.50
2019-01-27T11:48:23.029Z,98473.77
2019-01-27T11:50:53.153Z,98460.56
2019-01-27T11:53:21.661Z,98458.94
2019-01-27T11:55:50.110Z,98464.70
2019-01-27T11:58:18.677Z,98468.89
2019-01-27T12:00:48.815Z,98469.92
2019-01-27T12:03:17.267Z,98458.84
2019-01-27T12:05:45.735Z,98452.00
2019-01-27T12:08:14.214Z,98455.77
2019-01-27T12:10:43.075Z,98450.61
2019-01-27T12:13:11.595Z,98446.25
2019-01-27T12:15:40.633Z,98442.71
2019-01-27T12:18:09.097Z,98443.73
2019-01-27T12:20:37.622Z,98440.83
2019-01-27T12:23:06.070Z,98435.22
2019-01-27T12:25:34.545Z,98432.67
2019-01-27T12:28:03.007Z,98435.64
2019-01-27T12:30:33.047Z,98441.55
2019-01-27T12:33:01.495Z,98441.66
2019-01-27T12:35:30.027Z,98436.94
2019-01-27T12:38:00.039Z,98435.12
2019-01-27T12:40:28.450Z,98430.22
2019-01-27T12:42:56.883Z,98430.61
2019-01-27T12:45:25.452Z,98423.64
2019-01-27T12:47:53.889Z,98426.16
2019-01-27T12:50:22.365Z,98421.14
2019-01-27T12:52:53.195Z,98415.13
2019-01-27T12:55:21.812Z,98409.63
2019-01-27T12:57:51.746Z,98410.09
2019-01-27T13:00:26.085Z,98412.55
2019-01-27T13:02:54.547Z,98410.30
2019-01-27T13:05:23.029Z,98407.82
2019-01-27T13:07:51.493Z,98401.77
2019-01-27T13:10:23.077Z,98405.67
2019-01-27T13:12:51.540Z,98402.56
2019-01-27T13:15:21.801Z,98402.30
2019-01-27T13:17:50.252Z,98395.98
2019-01-27T13:20:21.010Z,98394.10
2019-01-27T13:22:49.466Z,98398.27
2019-01-27T13:25:19.328Z,98397.05
2019-01-27T13:27:48.079Z,98396.65
2019-01-27T13:30:18.939Z,98390.64
2019-01-27T13:32:47.761Z,98385.81
2019-01-27T13:35:16.338Z,98382.66
2019-01-27T13:37:44.805Z,98380.19
2019-01-27T13:40:15.899Z,98374.45
2019-01-27T13:42:44.890Z,98369.87
2019-01-27T13:45:16.201Z,98369.05
2019-01-27T13:47:44.926Z,98370.80
2019-01-27T13:50:15.452Z,98366.90
2019-01-27T13:52:43.898Z,98367.12
2019-01-27T13:55:15.419Z,98361.82
2019-01-27T13:57:43.902Z,98350.70
2019-01-27T14:00:21.400Z,98350.30
2019-01-27T14:02:49.924Z,98347.39
2019-01-27T14:05:18.465Z,98349.61
2019-01-27T14:07:46.963Z,98345.70
2019-01-27T14:10:18.507Z,98341.91
2019-01-27T14:12:46.964Z,98336.38
2019-01-27T14:15:24.183Z,98335.85
2019-01-27T14:17:52.639Z,98341.84
2019-01-27T14:20:21.377Z,98332.64
2019-01-27T14:22:49.852Z,98331.28
2019-01-27T14:25:21.126Z,98332.92
2019-01-27T14:27:49.684Z,98323.89
2019-01-27T14:30:29.961Z,98331.14
2019-01-27T14:32:59.986Z,98335.95
2019-01-27T14:35:28.545Z,98334.26
2019-01-27T14:37:56.962Z,98326.47
2019-01-27T14:40:27.441Z,98321.61
2019-01-27T14:42:55.986Z,98325.34
2019-01-27T14:45:31.469Z,98316.63
2019-01-27T14:48:00.579Z,98320.47
2019-01-27T14:50:37.759Z,98320.06
2019-01-27T14:53:07.021Z,98320.92
2019-01-27T14:55:35.463Z,98315.40
2019-01-27T14:58:04.227Z,98320.09
2019-01-27T15:00:41.179Z,98313.88
2019-01-27T15:03:09.850Z,98312.98
2019-01-27T15:05:38.360Z,98320.12
2019-01-27T15:08:07.557Z,98316.72
2019-01-27T15:10:36.244Z,98319.27
2019-01-27T15:13:05.857Z,98315.67
2019-01-27T15:15:35.006Z,98325.84
2019-01-27T15:18:03.893Z,98319.41
2019-01-27T15:20:38.495Z,98322.73
2019-01-27T15:23:06.931Z,98321.48
2019-01-27T15:25:35.425Z,98321.55
2019-01-27T15:28:04.069Z,98319.80
2019-01-27T15:30:35.185Z,98321.48
2019-01-27T15:33:03.935Z,98314.65
2019-01-27T15:35:33.275Z,98317.23
2019-01-27T15:38:01.749Z,98318.91
2019-01-27T15:40:30.331Z,98317.16
2019-01-27T15:42:58.797Z,98319.01
2019-01-27T15:45:29.869Z,98316.30
2019-01-27T15:47:58.335Z,98316.70
2019-01-27T15:50:29.884Z,98310.33
2019-01-27T15:52:58.349Z,98311.68
2019-01-27T15:55:26.888Z,98316.77
2019-01-27T15:57:55.148Z,98320.59
2019-01-27T16:00:28.995Z,98313.03
2019-01-27T16:02:57.520Z,98310.25
2019-01-27T16:05:26.217Z,98308.41
2019-01-27T16:07:54.710Z,98312.70
2019-01-27T16:10:25.288Z,98312.66
2019-01-27T16:12:56.117Z,98318.23
2019-01-27T16:15:26.828Z,98319.88
2019-01-27T16:17:55.462Z,98315.52
2019-01-27T16:20:24.479Z,98318.05
2019-01-27T16:23:09.598Z,98314.59
2019-01-27T16:25:38.244Z,98312.88
2019-01-27T16:28:06.756Z,98311.23
2019-01-27T16:30:53.581Z,98319.84
2019-01-27T16:33:23.634Z,98319.13
2019-01-27T16:35:54.809Z,98322.59
2019-01-27T16:38:23.258Z,98319.52
2019-01-27T16:40:53.274Z,98310.02
2019-01-27T16:43:21.727Z,98310.44
2019-01-27T16:45:50.241Z,98314.59
2019-01-27T16:48:18.691Z,98306.69
2019-01-27T16:50:47.649Z,98310.11
2019-01-27T16:53:16.149Z,98309.69
2019-01-27T16:55:44.683Z,98309.76
2019-01-27T16:58:13.165Z,98316.52
2019-01-27T17:00:41.709Z,98309.22
2019-01-27T17:03:10.184Z,98300.68
2019-01-27T17:05:38.646Z,98303.22
2019-01-27T17:08:07.112Z,98299.39
2019-01-27T17:10:35.746Z,98301.19
2019-01-27T17:13:05.773Z,98303.17
2019-01-27T17:15:35.400Z,98301.42
2019-01-27T17:18:04.256Z,98300.38
2019-01-27T17:20:32.707Z,98307.35
2019-01-27T17:23:01.208Z,98300.41
2019-01-27T17:25:29.655Z,98295.59
2019-01-27T17:27:59.780Z,98295.98
2019-01-27T17:30:29.203Z,98292.93
2019-01-27T17:32:59.175Z,98296.98
2019-01-27T17:35:28.060Z,98295.04
2019-01-27T17:37:58.212Z,98296.28
2019-01-27T17:40:27.738Z,98293.67
2019-01-27T17:42:56.259Z,98287.48
2019-01-27T17:45:26.393Z,98296.75
2019-01-27T17:47:55.074Z,98297.49
2019-01-27T17:50:24.879Z,98297.56
2019-01-27T17:52:54.177Z,98300.02
2019-01-27T17:55:43.490Z,98300.37
2019-01-27T17:58:31.361Z,98299.13
2019-01-27T18:01:01.588Z,98296.87
2019-01-27T18:03:37.762Z,98296.33
2019-01-27T18:06:08.045Z,98299.44
2019-01-27T18:08:45.955Z,98301.08
2019-01-27T18:11:16.103Z,98298.55
2019-01-27T18:13:44.807Z,98294.65
2019-01-27T18:16:15.064Z,98292.12
2019-01-27T18:18:46.041Z,98296.13
2019-01-27T18:21:14.553Z,98294.92
2019-01-27T18:23:43.029Z,98290.16
2019-01-27T18:26:11.527Z,98296.59
2019-01-27T18:28:41.844Z,98297.45
2019-01-27T18:31:11.002Z,98295.85
2019-01-27T18:33:39.456Z,98300.56
2019-01-27T18:36:09.755Z,98295.39
2019-01-27T18:38:38.361Z,98301.03
2019-01-27T18:41:06.834Z,98306.58
2019-01-27T18:43:35.344Z,98308.47
2019-01-27T18:46:04.016Z,98304.61
2019-01-27T18:48:33.490Z,98304.82
2019-01-27T18:51:03.474Z,98299.14
2019-01-27T18:53:48.538Z,98301.08
2019-01-27T18:56:27.476Z,98304.11
2019-01-27T18:59:03.188Z,98307.43
2019-01-27T19:01:49.829Z,98303.14
2019-01-27T19:04:31.802Z,98297.25
2019-01-27T19:07:18.446Z,98310.44
2019-01-27T19:09:57.307Z,98315.97
2019-01-27T19:12:30.352Z,98308.33
2019-01-27T19:15:16.998Z,98313.90
2019-01-27T19:18:03.197Z,98307.58
2019-01-27T19:20:38.759Z,98305.40
2019-01-27T19:23:11.560Z,98313.27
2019-01-27T19:25:44.694Z,98311.83
2019-01-27T19:28:26.665Z,98311.83
2019-01-27T19:30:56.865Z,98312.80
2019-01-27T19:33:28.144Z,98320.73
2019-01-27T19:36:07.247Z,98317.76
2019-01-27T19:38:54.020Z,98319.55
2019-01-27T19:41:25.488Z,98320.30
2019-01-27T19:43:59.101Z,98323.73
2019-01-27T19:46:29.327Z,98315.14
2019-01-27T19:49:05.325Z,98323.26
2019-01-27T19:51:36.550Z,98322.55
2019-01-27T19:54:12.770Z,98324.70
2019-01-27T19:56:43.470Z,98328.16
2019-01-27T19:59:17.367Z,98326.80
2019-01-27T20:02:04.015Z,98329.30
2019-01-27T20:04:34.296Z,98330.12
2019-01-27T20:07:14.038Z,98332.77
2019-01-27T20:09:45.682Z,98329.09
2019-01-27T20:12:18.483Z,98329.48
2019-01-27T20:14:48.671Z,98329.45
2019-01-27T20:17:24.560Z,98328.59
2019-01-27T20:20:09.862Z,98332.81
2019-01-27T20:22:52.626Z,98333.23
2019-01-27T20:25:23.719Z,98331.41
2019-01-27T20:27:56.644Z,98326.38
2019-01-27T20:30:28.450Z,98327.04
2019-01-27T20:33:07.448Z,98326.50
2019-01-27T20:35:37.605Z,98327.39
2019-01-27T20:38:07.787Z,98329.45
2019-01-27T20:40:41.709Z,98330.35
2019-01-27T20:43:28.472Z,98324.42
2019-01-27T20:45:58.604Z,98331.01
2019-01-27T20:48:31.412Z,98327.19
2019-01-27T20:51:07.354Z,98329.77
2019-01-27T20:53:46.524Z,98332.14
2019-01-27T20:56:16.951Z,98332.15
2019-01-27T20:58:49.604Z,98329.53
2019-01-27T21:01:22.648Z,98323.61
2019-01-27T21:04:01.384Z,98331.72
2019-01-27T21:06:47.698Z,98335.50
2019-01-27T21:09:20.947Z,98335.92
2019-01-27T21:12:07.862Z,98340.64
2019-01-27T21:14:46.679Z,98334.21
2019-01-27T21:17:22.744Z,98337.17
2019-01-27T21:19:51.295Z,98341.14
2019-01-27T21:22:19.816Z,98338.84
2019-01-27T21:24:48.290Z,98338.84
2019-01-27T21:27:16.985Z,98339.70
2019-01-27T21:29:45.450Z,98345.11
2019-01-27T21:32:13.791Z,98340.95
2019-01-27T21:34:42.278Z,98351.02
2019-01-27T21:37:10.821Z,98344.15
2019-01-27T21:39:39.276Z,98344.11
2019-01-27T21:42:07.754Z,98340.29
2019-01-27T21:44:36.228Z,98346.11
2019-01-27T21:47:04.695Z,98351.83
2019-01-27T21:49:33.178Z,98354.36
2019-01-27T21:52:03.169Z,98353.11
2019-01-27T21:54:31.656Z,98348.36
2019-01-27T21:57:01.804Z,98353.94
2019-01-27T21:59:30.290Z,98352.73
2019-01-27T22:01:58.777Z,98350.19
2019-01-27T22:04:27.299Z,98355.09
2019-01-27T22:06:55.857Z,98357.78
2019-01-27T22:09:24.326Z,98355.26
2019-01-27T22:11:52.800Z,98354.75
2019-01-27T22:14:21.275Z,98357.70
2019-01-27T22:16:50.102Z,98359.38
2019-01-27T22:19:18.562Z,98360.58
2019-01-27T22:21:47.006Z,98359.38
2019-01-27T22:24:15.703Z,98365.77
2019-01-27T22:26:44.172Z,98364.61
2019-01-27T22:29:12.631Z,98363.24
2019-01-27T22:31:41.113Z,98357.88
2019-01-27T22:34:09.652Z,98359.72
2019-01-27T22:36:38.113Z,98361.95
2019-01-27T22:39:08.353Z,98361.22
2019-01-27T22:41:36.992Z,98368.47
2019-01-27T22:44:05.614Z,98365.42
2019-01-27T22:46:34.162Z,98365.81
2019-01-27T22:49:02.653Z,98369.97
2019-01-27T22:51:31.112Z,98377.94
2019-01-27T22:54:01.067Z,98373.83
2019-01-27T22:56:29.616Z,98376.66
2019-01-27T22:58:58.103Z,98376.61
2019-01-27T23:01:26.646Z,98379.87
2019-01-27T23:03:55.106Z,98377.98
2019-01-27T23:06:23.550Z,98377.17
2019-01-27T23:08:52.069Z,98382.45
2019-01-27T23:11:20.589Z,98377.30
2019-01-27T23:13:48.977Z,98375.16
2019-01-27T23:16:17.447Z,98380.77
2019-01-27T23:18:45.897Z,98380.77
2019-01-27T23:21:14.351Z,98376.36
2019-01-27T23:23:42.812Z,98384.08
2019-01-27T23:26:11.320Z,98379.36
2019-01-27T23:28:39.783Z,98385.02
2019-01-27T23:31:08.351Z,98384.16
2019-01-27T23:33:38.337Z,98375.94
2019-01-27T23:36:06.861Z,98379.74
2019-01-27T23:38:35.302Z,98384.45
2019-01-27T23:41:03.772Z,98384.76
2019-01-27T23:43:32.207Z,98388.27
2019-01-27T23:46:03.639Z,98389.47
2019-01-27T23:48:32.089Z,98388.74
2019-01-27T23:51:00.562Z,98392.08
2019-01-27T23:53:29.071Z,98395.00
2019-01-27T23:55:57.531Z,98393.64
2019-01-27T23:58:26.061Z,98391.53
